Time;durP1;ratioP1;P1;durP2;ratioP2;P2;SDS_P1;SDS_P2;PMS_P1;PMS_P2;Temp;Humidity;BMP_temperature;BMP_pressure;BME280_temperature;BME280_humidity;BME280_pressure;Samples;Min_cycle;Max_cycle;Signal;HPM_P1;HPM_P2
2023/03/16 00:01:34;;;;;;;;;;;;;;;-140.72;0.00;53003.69;5027336;28;19921;-71
2023/03/16 00:04:00;;;;;;;;;;;;;;;-140.72;0.00;53003.69;5021117;28;20064;-71
2023/03/16 00:06:25;;;;;;;;;;;;;;;-140.72;0.00;53036.16;5031719;28;19924;-70
2023/03/16 00:08:50;;;;;;;;;;;;;;;-140.72;0.00;53040.22;5030434;28;19924;-70
2023/03/16 00:11:15;;;;;;;;;;;;;;;-140.72;0.00;53017.91;5027756;28;19967;-71
2023/03/16 00:13:41;;;;;;;;;;;;;;;-140.72;0.00;53007.75;5011003;28;19921;-70
2023/03/16 00:16:07;;;;;;;;;;;;;;;-140.72;0.00;53011.81;5024263;28;19925;-70
2023/03/16 00:18:37;;;;;;;;;;;;;;;-140.72;0.00;52959.06;5012841;28;20008;-70
2023/03/16 00:21:04;;;;;;;;;;;;;;;-140.72;0.00;52995.59;5028878;28;19948;-70
2023/03/16 00:23:34;;;;;;;;;;;;;;;-140.72;0.00;53028.06;5031120;28;20340;-70
2023/03/16 00:26:01;;;;;;;;;;;;;;;-140.72;0.00;52999.66;5034031;28;19925;-70
2023/03/16 00:28:27;;;;;;;;;;;;;;;-140.72;0.00;53030.09;5032730;28;19932;-71
2023/03/16 00:30:57;;;;;;;;;;;;;;;-140.72;0.00;53009.78;5027334;28;19936;-71
2023/03/16 00:33:22;;;;;;;;;;;;;;;-140.72;0.00;52995.59;5030497;28;19921;-71
2023/03/16 00:35:48;;;;;;;;;;;;;;;-140.72;0.00;53040.22;5035904;28;19925;-71
2023/03/16 00:38:14;;;;;;;;;;;;;;;-140.72;0.00;53036.16;5027035;28;19928;-71
2023/03/16 00:40:39;;;;;;;;;;;;;;;-140.72;0.00;53048.34;5030230;28;20003;-71
2023/03/16 00:43:04;;;;;;;;;;;;;;;-140.72;0.00;52995.59;5022109;28;19921;-70
2023/03/16 00:45:31;;;;;;;;;;;;;;;-140.72;0.00;52995.59;5031985;28;19921;-71
2023/03/16 00:47:56;;;;;;;;;;;;;;;-140.72;0.00;53024.00;5029372;28;19925;-71
2023/03/16 00:50:21;;;;;;;;;;;;;;;-140.72;0.00;52999.66;5034206;28;20268;-71
2023/03/16 00:52:47;;;;;;;;;;;;;;;-140.72;0.00;53040.22;5034207;28;20395;-72
2023/03/16 00:55:12;;;;;;;;;;;;;;;-140.72;0.00;53003.69;5032776;28;19931;-71
2023/03/16 00:57:38;;;;;;;;;;;;;;;-140.72;0.00;53048.34;5014304;28;19963;-70
2023/03/16 01:00:11;;;;;;;;;;;;;;;-140.72;0.00;53068.66;5014418;28;20671;-71
2023/03/16 01:02:36;;;;;;;;;;;;;;;-140.72;0.00;52987.47;5029340;28;19929;-71
2023/03/16 01:05:04;;;;;;;;;;;;;;;-140.72;0.00;53032.13;5032215;28;19917;-71
2023/03/16 01:07:30;;;;;;;;;;;;;;;-140.72;0.00;53040.22;5035473;28;19967;-71
2023/03/16 01:09:55;;;;;;;;;;;;;;;-140.72;0.00;53036.16;5031494;28;19925;-71
2023/03/16 01:12:20;;;;;;;;;;;;;;;-140.72;0.00;53005.72;5033882;28;20007;-71
2023/03/16 01:14:55;;;;;;;;;;;;;;;-140.72;0.00;53026.03;5029015;28;19925;-71
2023/03/16 01:17:21;;;;;;;;;;;;;;;-140.72;0.00;53017.91;5028570;28;19925;-71
2023/03/16 01:20:07;;;;;;;;;;;;;;;-140.72;0.00;52946.88;5029679;28;19925;-71
2023/03/16 01:22:32;;;;;;;;;;;;;;;-140.72;0.00;53007.75;5027069;28;19921;-71
2023/03/16 01:24:57;;;;;;;;;;;;;;;-140.72;0.00;53019.94;5019034;28;19972;-71
2023/03/16 01:27:25;;;;;;;;;;;;;;;-140.72;0.00;53015.88;5011355;28;19924;-71
2023/03/16 01:29:50;;;;;;;;;;;;;;;-140.72;0.00;53026.03;5026873;28;20295;-71
2023/03/16 01:32:52;;;;;;;;;;;;;;;-140.72;0.00;52965.16;5030728;28;19975;-71
2023/03/16 01:35:20;;;;;;;;;;;;;;;-140.72;0.00;53034.16;5022043;28;19918;-71
2023/03/16 01:38:18;;;;;;;;;;;;;;;-140.72;0.00;53030.09;5033941;28;19917;-71
2023/03/16 01:40:43;;;;;;;;;;;;;;;-140.72;0.00;52971.22;5010060;28;19952;-71
2023/03/16 01:43:10;;;;;;;;;;;;;;;-140.72;0.00;52977.31;5031159;28;19956;-71
2023/03/16 01:45:54;;;;;;;;;;;;;;;-140.72;0.00;52995.59;5023469;28;20283;-71
2023/03/16 01:48:20;;;;;;;;;;;;;;;-140.72;0.00;52995.59;5022659;28;19971;-71
2023/03/16 01:50:46;;;;;;;;;;;;;;;-140.72;0.00;52995.59;5025731;28;19921;-71
2023/03/16 01:53:11;;;;;;;;;;;;;;;-140.72;0.00;53036.16;5025934;28;19921;-71
2023/03/16 01:55:37;;;;;;;;;;;;;;;-140.72;0.00;52995.59;5034346;28;19921;-71
2023/03/16 01:58:02;;;;;;;;;;;;;;;-140.72;0.00;53003.69;5031394;28;19921;-71
2023/03/16 02:00:31;;;;;;;;;;;;;;;-140.72;0.00;52991.53;5005129;28;19921;-71
2023/03/16 02:03:04;;;;;;;;;;;;;;;-140.72;0.00;53024.00;5028010;28;19917;-71
2023/03/16 02:05:32;;;;;;;;;;;;;;;-140.72;0.00;52981.38;5032063;28;19921;-71
2023/03/16 02:07:58;;;;;;;;;;;;;;;-140.72;0.00;53038.19;5016115;28;19976;-71
2023/03/16 02:10:24;;;;;;;;;;;;;;;-140.72;0.00;53021.97;5030637;28;19925;-70
2023/03/16 02:12:51;;;;;;;;;;;;;;;-140.72;0.00;52969.19;5030122;28;20299;-71
2023/03/16 02:15:16;;;;;;;;;;;;;;;-140.72;0.00;53001.66;5032156;28;20397;-70
2023/03/16 02:17:42;;;;;;;;;;;;;;;-140.72;0.00;53005.72;5032585;28;19917;-71
2023/03/16 02:20:08;;;;;;;;;;;;;;;-140.72;0.00;53040.22;5028755;28;19922;-70
2023/03/16 02:22:35;;;;;;;;;;;;;;;-140.72;0.00;53026.03;5016152;28;19968;-71
2023/03/16 02:25:00;;;;;;;;;;;;;;;-140.72;0.00;53013.84;5018664;28;19921;-70
2023/03/16 02:27:39;;;;;;;;;;;;;;;-140.72;0.00;53015.88;5016000;28;19932;-70
2023/03/16 02:30:10;;;;;;;;;;;;;;;-140.72;0.00;53013.84;5030397;28;19982;-71
2023/03/16 02:32:36;;;;;;;;;;;;;;;-140.72;0.00;52989.50;5027402;28;20471;-70
2023/03/16 02:35:02;;;;;;;;;;;;;;;-140.72;0.00;53040.22;5030688;28;19952;-70
2023/03/16 02:37:27;;;;;;;;;;;;;;;-140.72;0.00;53013.84;5018551;28;19943;-70
2023/03/16 02:39:52;;;;;;;;;;;;;;;-140.72;0.00;53019.94;5027779;28;19922;-70
2023/03/16 02:42:20;;;;;;;;;;;;;;;-140.72;0.00;52983.41;5031870;28;19921;-70
2023/03/16 02:44:47;;;;;;;;;;;;;;;-140.72;0.00;53003.69;5029743;28;19921;-70
2023/03/16 02:47:18;;;;;;;;;;;;;;;-140.72;0.00;52987.47;5028149;28;19917;-70
2023/03/16 02:49:44;;;;;;;;;;;;;;;-140.72;0.00;53046.31;5022150;28;19921;-70
2023/03/16 02:52:09;;;;;;;;;;;;;;;-140.72;0.00;53017.91;5028765;28;19922;-70
2023/03/16 02:54:35;;;;;;;;;;;;;;;-140.72;0.00;53036.16;5031630;28;19921;-70
2023/03/16 02:57:00;;;;;;;;;;;;;;;-140.72;0.00;52983.41;5033408;28;19921;-70
2023/03/16 02:59:26;;;;;;;;;;;;;;;-140.72;0.00;53017.91;5025729;28;19932;-70
2023/03/16 03:01:51;;;;;;;;;;;;;;;-140.72;0.00;53024.00;5027297;28;20389;-70
2023/03/16 03:04:16;;;;;;;;;;;;;;;-140.72;0.00;53024.00;5033172;28;19921;-70
2023/03/16 03:06:42;;;;;;;;;;;;;;;-140.72;0.00;53032.13;5030389;28;20256;-70
2023/03/16 03:09:10;;;;;;;;;;;;;;;-140.72;0.00;52995.59;5032425;28;20298;-70
2023/03/16 03:11:35;;;;;;;;;;;;;;;-140.72;0.00;53024.00;5033479;28;19928;-70
2023/03/16 03:14:00;;;;;;;;;;;;;;;-140.72;0.00;53040.22;5028233;28;20327;-70
2023/03/16 03:16:25;;;;;;;;;;;;;;;-140.72;0.00;53011.81;5031168;28;20300;-70
2023/03/16 03:18:54;;;;;;;;;;;;;;;-140.72;0.00;53038.19;5033133;28;19918;-70
2023/03/16 03:21:19;;;;;;;;;;;;;;;-140.72;0.00;52987.47;5030115;28;19929;-70
2023/03/16 03:23:45;;;;;;;;;;;;;;;-140.72;0.00;52973.25;5030543;28;19921;-70
2023/03/16 03:26:11;;;;;;;;;;;;;;;-140.72;0.00;53019.94;5011895;28;19987;-70
2023/03/16 03:28:36;;;;;;;;;;;;;;;-140.72;0.00;53040.22;5022040;28;19931;-70
2023/03/16 03:31:01;;;;;;;;;;;;;;;-140.72;0.00;53048.34;5017935;28;19928;-70
2023/03/16 03:33:27;;;;;;;;;;;;;;;-140.72;0.00;53011.81;5024575;28;19921;-71
2023/03/16 03:35:57;;;;;;;;;;;;;;;-140.72;0.00;53040.22;5016889;28;19922;-70
2023/03/16 03:38:22;;;;;;;;;;;;;;;-140.72;0.00;53024.00;5030151;28;19983;-71
2023/03/16 03:40:50;;;;;;;;;;;;;;;-140.72;0.00;53003.69;5031745;28;19918;-70
2023/03/16 03:43:16;;;;;;;;;;;;;;;-140.72;0.00;52999.66;5030453;28;19921;-70
2023/03/16 03:45:41;;;;;;;;;;;;;;;-140.72;0.00;53036.16;5033212;28;20391;-70
2023/03/16 03:51:09;;;;;;;;;;;;;;;-140.72;0.00;53009.78;5021144;28;19928;-72
2023/03/16 03:53:34;;;;;;;;;;;;;;;-140.72;0.00;53015.88;5014700;28;20367;-72
2023/03/16 03:56:00;;;;;;;;;;;;;;;-140.72;0.00;53011.81;5018686;28;19917;-72
2023/03/16 03:58:25;;;;;;;;;;;;;;;-140.72;0.00;53032.13;5028641;28;20059;-72
2023/03/16 04:00:50;;;;;;;;;;;;;;;-140.72;0.00;53038.19;5015148;28;20024;-71
2023/03/16 04:03:17;;;;;;;;;;;;;;;-140.72;0.00;53015.88;4993636;28;19957;-72
2023/03/16 04:05:42;;;;;;;;;;;;;;;-140.72;0.00;53011.81;5011204;28;19928;-70
2023/03/16 04:08:07;;;;;;;;;;;;;;;-140.72;0.00;53036.16;5010464;28;20008;-70
2023/03/16 04:10:32;;;;;;;;;;;;;;;-140.72;0.00;53013.84;5005791;28;19982;-71
2023/03/16 04:12:58;;;;;;;;;;;;;;;-140.72;0.00;53024.00;5015086;28;19968;-71
2023/03/16 04:15:24;;;;;;;;;;;;;;;-140.72;0.00;52979.34;5004648;28;19917;-70
2023/03/16 04:17:51;;;;;;;;;;;;;;;-140.72;0.00;53028.06;5013829;28;19957;-70
2023/03/16 04:20:18;;;;;;;;;;;;;;;-140.72;0.00;53060.53;5007257;28;19933;-70
2023/03/16 04:22:44;;;;;;;;;;;;;;;-140.72;0.00;53005.72;5006945;28;19928;-70
2023/03/16 04:25:09;;;;;;;;;;;;;;;-140.72;0.00;52997.63;5009511;28;20004;-70
2023/03/16 04:27:38;;;;;;;;;;;;;;;-140.72;0.00;52999.66;5011059;28;19922;-70
2023/03/16 04:30:04;;;;;;;;;;;;;;;-140.72;0.00;52993.56;5006982;28;20012;-70
2023/03/16 04:32:30;;;;;;;;;;;;;;;-140.72;0.00;53017.91;5012161;28;19966;-69
2023/03/16 04:34:55;;;;;;;;;;;;;;;-140.72;0.00;53019.94;4996099;28;19921;-70
2023/03/16 04:37:21;;;;;;;;;;;;;;;-140.72;0.00;53007.75;4993357;28;20090;-70
2023/03/16 04:39:46;;;;;;;;;;;;;;;-140.72;0.00;53044.28;4989840;28;19928;-70
2023/03/16 04:42:11;;;;;;;;;;;;;;;-140.72;0.00;53042.25;5013130;28;19922;-70
2023/03/16 04:44:43;;;;;;;;;;;;;;;-140.72;0.00;53015.88;5011973;28;19921;-69
2023/03/16 04:47:08;;;;;;;;;;;;;;;-140.72;0.00;53024.00;5007719;28;19922;-70
2023/03/16 04:49:33;;;;;;;;;;;;;;;-140.72;0.00;53046.31;5009461;28;19929;-70
2023/03/16 04:51:59;;;;;;;;;;;;;;;-140.72;0.00;53032.13;5015282;28;19979;-70
2023/03/16 04:54:24;;;;;;;;;;;;;;;-140.72;0.00;53036.16;5004435;28;19921;-70
2023/03/16 04:56:51;;;;;;;;;;;;;;;-140.72;0.00;53044.28;5012944;28;19972;-69
2023/03/16 04:59:16;;;;;;;;;;;;;;;-140.72;0.00;52991.53;5013190;28;19941;-70
2023/03/16 05:01:42;;;;;;;;;;;;;;;-140.72;0.00;53040.22;5013189;28;19922;-71
2023/03/16 05:04:07;;;;;;;;;;;;;;;-140.72;0.00;53013.84;5006973;28;20020;-70
2023/03/16 05:06:32;;;;;;;;;;;;;;;-140.72;0.00;53005.72;5009591;28;20082;-70
2023/03/16 05:08:59;;;;;;;;;;;;;;;-140.72;0.00;53030.09;4983632;28;20383;-70
2023/03/16 05:11:24;;;;;;;;;;;;;;;-140.72;0.00;53038.19;5006049;28;19929;-70
2023/03/16 05:13:49;;;;;;;;;;;;;;;-140.72;0.65;53046.31;4988532;28;19922;-70
2023/03/16 05:16:15;;;;;;;;;;;;;;;-140.72;24.20;53068.66;5009930;28;19975;-70
2023/03/16 05:18:40;;;;;;;;;;;;;;;-140.72;53.53;53013.84;5003651;28;19921;-70
2023/03/16 05:21:05;;;;;;;;;;;;;;;-140.72;62.87;52999.66;5009411;28;19932;-70
2023/03/16 05:23:30;;;;;;;;;;;;;;;-140.72;76.13;53034.16;5010969;28;19976;-72
2023/03/16 05:25:58;;;;;;;;;;;;;;;-140.72;89.46;53072.69;5005976;28;20339;-70
2023/03/16 05:28:23;;;;;;;;;;;;;;;-140.72;100.00;53044.28;4997625;28;19922;-70
2023/03/16 05:30:50;;;;;;;;;;;;;;;-140.72;100.00;53068.66;5014574;28;19921;-69
2023/03/16 05:33:15;;;;;;;;;;;;;;;-140.72;100.00;53050.38;4994394;28;20016;-69
2023/03/16 05:35:41;;;;;;;;;;;;;;;-140.72;100.00;53015.88;4995613;28;19956;-70
2023/03/16 05:38:08;;;;;;;;;;;;;;;-140.72;100.00;53044.28;5013735;28;19926;-70
2023/03/16 05:40:34;;;;;;;;;;;;;;;-140.72;100.00;52995.59;4993843;28;20375;-70
2023/03/16 05:42:59;;;;;;;;;;;;;;;-140.72;100.00;53093.00;5004880;28;19946;-70
2023/03/16 05:45:25;;;;;;;;;;;;;;;-140.72;100.00;53034.16;5013571;28;19925;-72
2023/03/16 05:47:50;;;;;;;;;;;;;;;-140.72;100.00;53048.34;5003203;28;19922;-71
2023/03/16 05:50:16;;;;;;;;;;;;;;;-140.72;100.00;53036.16;5012103;28;20116;-69
2023/03/16 05:52:43;;;;;;;;;;;;;;;-140.72;100.00;53044.28;5005783;28;19929;-69
2023/03/16 05:55:09;;;;;;;;;;;;;;;-140.72;100.00;53070.69;5007281;28;20364;-70
2023/03/16 05:57:34;;;;;;;;;;;;;;;-140.72;100.00;52997.63;5012156;28;21886;-69
2023/03/16 06:00:09;;;;;;;;;;;;;;;-140.72;100.00;53011.81;5013234;28;19921;-70
2023/03/16 06:02:35;;;;;;;;;;;;;;;-140.72;100.00;53040.22;5013018;28;19921;-70
2023/03/16 06:05:01;;;;;;;;;;;;;;;-140.72;100.00;53042.25;5028149;28;19924;-69
2023/03/16 06:07:26;;;;;;;;;;;;;;;-140.72;100.00;53064.59;5032285;28;19925;-68
2023/03/16 06:09:52;;;;;;;;;;;;;;;-140.72;100.00;53015.88;5028277;28;19921;-69
2023/03/16 06:12:17;;;;;;;;;;;;;;;-140.72;100.00;53062.56;5010688;28;19994;-69
2023/03/16 06:14:42;;;;;;;;;;;;;;;-140.72;100.00;52999.66;5030567;28;20012;-69
2023/03/16 06:17:08;;;;;;;;;;;;;;;-140.72;100.00;52991.53;5028751;28;19951;-69
2023/03/16 06:19:33;;;;;;;;;;;;;;;-140.72;100.00;53036.16;5030256;28;19925;-69
2023/03/16 06:21:58;;;;;;;;;;;;;;;-140.72;100.00;53042.25;5026299;28;20080;-69
2023/03/16 06:24:23;;;;;;;;;;;;;;;-140.72;100.00;53026.03;5032742;28;19921;-69
2023/03/16 06:26:48;;;;;;;;;;;;;;;-140.72;100.00;53074.72;5031603;28;19921;-69
2023/03/16 06:29:14;;;;;;;;;;;;;;;-140.72;100.00;53028.06;5030205;28;19970;-69
2023/03/16 06:31:39;;;;;;;;;;;;;;;-140.72;100.00;53050.38;5028892;28;19921;-69
2023/03/16 06:34:05;;;;;;;;;;;;;;;-140.72;100.00;53052.41;5029425;28;19917;-70
2023/03/16 06:36:30;;;;;;;;;;;;;;;-140.72;100.00;53005.72;5016722;28;20055;-69
2023/03/16 06:38:55;;;;;;;;;;;;;;;-140.72;100.00;53036.16;5032422;28;19927;-69
2023/03/16 06:41:20;;;;;;;;;;;;;;;-140.72;100.00;53021.97;5030952;28;19921;-73
2023/03/16 06:43:46;;;;;;;;;;;;;;;-140.72;100.00;53003.69;5013890;28;20422;-69
2023/03/16 06:46:11;;;;;;;;;;;;;;;-140.72;100.00;52995.59;5033542;28;20397;-74
2023/03/16 06:48:36;;;;;;;;;;;;;;;-140.72;100.00;53015.88;5027283;28;19936;-70
2023/03/16 06:51:02;;;;;;;;;;;;;;;-140.72;100.00;53007.75;5022750;28;19922;-71
2023/03/16 06:53:27;;;;;;;;;;;;;;;-140.72;100.00;53036.16;5010569;28;20323;-71
2023/03/16 06:55:52;;;;;;;;;;;;;;;-140.72;100.00;53026.03;5023982;28;19929;-70
2023/03/16 06:58:17;;;;;;;;;;;;;;;-140.72;100.00;53042.25;5025940;28;20092;-72
2023/03/16 07:00:43;;;;;;;;;;;;;;;-140.72;100.00;53011.81;5027803;28;20326;-71
2023/03/16 07:03:08;;;;;;;;;;;;;;;-140.72;100.00;53042.25;5031709;28;19924;-69
2023/03/16 07:05:33;;;;;;;;;;;;;;;-140.72;100.00;53068.66;5028505;28;20424;-69
2023/03/16 07:07:58;;;;;;;;;;;;;;;-140.72;100.00;52999.66;5033341;28;20437;-69
2023/03/16 07:10:24;;;;;;;;;;;;;;;-140.72;100.00;53019.94;5025346;28;20008;-69
2023/03/16 07:12:49;;;;;;;;;;;;;;;-140.72;100.00;53042.25;5010308;28;19984;-69
2023/03/16 07:15:15;;;;;;;;;;;;;;;-140.72;100.00;53019.94;5023915;28;20048;-70
2023/03/16 07:17:41;;;;;;;;;;;;;;;-140.72;100.00;53042.25;5019504;28;19940;-71
2023/03/16 07:20:09;;;;;;;;;;;;;;;-140.72;100.00;53058.50;5012175;28;19922;-71
2023/03/16 07:22:34;;;;;;;;;;;;;;;-140.72;100.00;53019.94;5018997;28;20299;-70
2023/03/16 07:25:00;;;;;;;;;;;;;;;-140.72;100.00;53021.97;5035670;28;19917;-70
2023/03/16 07:27:26;;;;;;;;;;;;;;;-140.72;100.00;53036.16;5037269;28;19918;-70
2023/03/16 07:29:51;;;;;;;;;;;;;;;-140.72;100.00;53011.81;5011569;28;19923;-70
2023/03/16 07:32:17;;;;;;;;;;;;;;;-140.72;100.00;52995.59;5033258;28;19947;-70
2023/03/16 07:34:42;;;;;;;;;;;;;;;-140.72;100.00;53007.75;5037746;28;19917;-70
2023/03/16 07:37:07;;;;;;;;;;;;;;;-140.72;100.00;52997.63;5041403;28;19917;-70
2023/03/16 07:39:33;;;;;;;;;;;;;;;-140.72;100.00;52987.47;5043994;28;19920;-70
2023/03/16 07:41:58;;;;;;;;;;;;;;;-140.72;100.00;53040.22;5022516;28;19941;-73
2023/03/16 07:44:24;;;;;;;;;;;;;;;-140.72;100.00;53034.16;5027654;28;20019;-71
2023/03/16 07:46:50;;;;;;;;;;;;;;;-140.72;100.00;53011.81;5031201;28;19918;-73
2023/03/16 07:49:15;;;;;;;;;;;;;;;-140.72;100.00;52991.53;5026971;28;19928;-71
2023/03/16 07:51:41;;;;;;;;;;;;;;;-140.72;98.97;52950.94;5026390;28;20375;-71
2023/03/16 07:54:07;;;;;;;;;;;;;;;-140.72;84.44;52995.59;5043353;28;19925;-72
2023/03/16 07:56:32;;;;;;;;;;;;;;;-140.72;0.00;53005.72;5036476;28;19917;-74
2023/03/16 07:58:57;;;;;;;;;;;;;;;-140.72;0.00;53019.94;5028650;28;19924;-75
2023/03/16 08:01:23;;;;;;;;;;;;;;;-140.72;0.00;53032.13;5022298;28;19924;-71
2023/03/16 08:03:48;;;;;;;;;;;;;;;-140.72;0.00;53003.69;5030833;28;19917;-70
2023/03/16 08:06:13;;;;;;;;;;;;;;;-140.72;0.00;53013.84;5038855;28;19964;-71
2023/03/16 08:08:39;;;;;;;;;;;;;;;-140.72;0.00;52987.47;5041515;28;19921;-70
2023/03/16 08:11:04;;;;;;;;;;;;;;;-140.72;0.00;52971.22;5033014;28;20016;-70
2023/03/16 08:13:29;;;;;;;;;;;;;;;-140.72;0.00;52975.28;5034076;28;20011;-70
2023/03/16 08:15:57;;;;;;;;;;;;;;;-140.72;0.00;53003.69;5033233;28;19928;-70
2023/03/16 08:18:25;;;;;;;;;;;;;;;-140.72;0.00;53003.69;5033767;28;19917;-70
2023/03/16 08:20:51;;;;;;;;;;;;;;;-140.72;0.00;52989.50;5019691;28;19917;-70
2023/03/16 08:23:16;;;;;;;;;;;;;;;-140.72;0.00;53011.81;5038341;28;20290;-70
2023/03/16 08:25:42;;;;;;;;;;;;;;;-140.72;0.00;52985.44;5013048;28;20299;-70
2023/03/16 08:28:08;;;;;;;;;;;;;;;-140.72;0.00;52991.53;5032741;28;19917;-71
2023/03/16 08:30:34;;;;;;;;;;;;;;;-140.72;0.00;52983.41;5025536;28;20398;-72
2023/03/16 08:33:00;;;;;;;;;;;;;;;-140.72;0.00;52983.41;5036580;28;19951;-71
2023/03/16 08:35:27;;;;;;;;;;;;;;;-140.72;0.00;52940.78;5027454;28;19924;-69
2023/03/16 08:37:53;;;;;;;;;;;;;;;-140.72;0.00;52999.66;5036785;28;20359;-70
2023/03/16 08:40:21;;;;;;;;;;;;;;;-140.72;0.00;52944.84;5035639;28;19976;-71
2023/03/16 08:42:48;;;;;;;;;;;;;;;-140.72;0.00;52940.78;5035770;28;19921;-69
2023/03/16 08:45:14;;;;;;;;;;;;;;;-140.72;0.00;52955.00;5036651;28;19924;-70
2023/03/16 08:47:39;;;;;;;;;;;;;;;-140.72;0.00;52938.75;5037505;28;19956;-70
2023/03/16 08:50:05;;;;;;;;;;;;;;;-140.72;0.00;52973.25;5034917;28;19917;-70
2023/03/16 08:52:31;;;;;;;;;;;;;;;-140.72;0.00;52950.94;5028578;28;19916;-71
2023/03/16 08:54:56;;;;;;;;;;;;;;;-140.72;0.00;52975.28;5017170;28;19929;-70
2023/03/16 08:57:22;;;;;;;;;;;;;;;-140.72;0.00;52942.81;5025951;28;19940;-70
2023/03/16 08:59:47;;;;;;;;;;;;;;;-140.72;0.00;52940.78;5052000;28;19921;-73
2023/03/16 09:02:13;;;;;;;;;;;;;;;-140.72;0.00;52979.34;5056213;28;20074;-70
2023/03/16 09:04:39;;;;;;;;;;;;;;;-140.72;0.00;52936.72;5035640;28;19928;-70
2023/03/16 09:07:04;;;;;;;;;;;;;;;-140.72;0.00;52914.41;5035927;28;19923;-70
2023/03/16 09:09:30;;;;;;;;;;;;;;;-140.72;0.00;52894.13;5035049;28;19917;-70
2023/03/16 09:11:55;;;;;;;;;;;;;;;-140.72;0.00;52926.59;5052987;28;19925;-70
2023/03/16 09:14:22;;;;;;;;;;;;;;;-140.72;0.00;52914.41;5038166;28;19917;-70
2023/03/16 09:16:47;;;;;;;;;;;;;;;-140.72;0.00;52890.06;5046499;28;19917;-70
2023/03/16 09:19:12;;;;;;;;;;;;;;;-140.72;0.00;52898.16;5035579;28;19918;-70
2023/03/16 09:21:38;;;;;;;;;;;;;;;-140.72;0.00;52916.44;5026455;28;19939;-70
2023/03/16 09:24:03;;;;;;;;;;;;;;;-140.72;0.00;52914.41;5018023;28;19917;-70
2023/03/16 09:26:29;;;;;;;;;;;;;;;-140.72;0.00;52934.69;5035416;28;19917;-71
2023/03/16 09:28:54;;;;;;;;;;;;;;;-140.72;0.00;52890.06;5027435;28;19917;-71
2023/03/16 09:31:20;;;;;;;;;;;;;;;-140.72;0.00;52898.16;5035728;28;19917;-74
2023/03/16 09:33:45;;;;;;;;;;;;;;;-140.72;0.00;52879.91;5018026;28;19917;-71
2023/03/16 09:36:12;;;;;;;;;;;;;;;-140.72;0.00;52861.66;5035130;28;19917;-70
2023/03/16 09:38:38;;;;;;;;;;;;;;;-140.72;0.00;52869.75;5035611;28;19943;-70
2023/03/16 09:41:22;;;;;;;;;;;;;;;-140.72;0.00;52879.91;5035242;28;20000;-70
2023/03/16 09:43:57;;;;;;;;;;;;;;;-140.72;0.00;52865.69;5032077;28;19917;-70
2023/03/16 09:46:31;;;;;;;;;;;;;;;-140.72;0.00;52849.47;5026160;28;19925;-70
2023/03/16 09:48:57;;;;;;;;;;;;;;;-140.72;0.00;52873.81;5035149;28;19921;-70
2023/03/16 09:51:43;;;;;;;;;;;;;;;-140.72;0.00;52857.59;5035396;28;20388;-71
2023/03/16 09:54:18;;;;;;;;;;;;;;;-140.72;0.00;52877.88;5026361;28;20011;-70
2023/03/16 09:56:45;;;;;;;;;;;;;;;-140.72;0.00;52814.97;5044911;28;20438;-70
2023/03/16 09:59:12;;;;;;;;;;;;;;;-140.72;0.00;52861.66;5017348;28;19964;-70
2023/03/16 10:01:56;;;;;;;;;;;;;;;-140.72;0.00;52817.00;5045302;28;19917;-70
2023/03/16 10:04:21;;;;;;;;;;;;;;;-140.72;0.00;52814.97;5029600;28;19963;-70
2023/03/16 10:06:53;;;;;;;;;;;;;;;-140.72;0.00;52802.78;5029783;28;20492;-70
2023/03/16 10:09:25;;;;;;;;;;;;;;;-140.72;0.00;52843.38;5032184;28;19924;-70
2023/03/16 10:11:55;;;;;;;;;;;;;;;-140.72;0.00;52841.34;5006275;28;19917;-70
2023/03/16 10:15:00;;;;;;;;;;;;;;;-140.72;0.00;52835.25;5004565;28;19956;-70
2023/03/16 10:17:29;;;;;;;;;;;;;;;-140.72;0.00;52833.22;4935215;29;19919;-70
2023/03/16 10:20:21;;;;;;;;;;;;;;;-140.72;0.00;52845.41;4935160;29;19919;-70
2023/03/16 10:22:48;;;;;;;;;;;;;;;-140.72;0.00;52825.13;4985676;28;19945;-70
2023/03/16 10:25:38;;;;;;;;;;;;;;;-140.72;0.00;52845.41;5046904;28;20011;-70
2023/03/16 10:28:03;;;;;;;;;;;;;;;-140.72;0.00;52827.16;5029817;28;20008;-70
2023/03/16 10:30:31;;;;;;;;;;;;;;;-140.72;0.00;52817.00;5027821;28;19960;-70
2023/03/16 10:33:00;;;;;;;;;;;;;;;-140.72;0.00;52833.22;5034547;28;19920;-71
2023/03/16 10:35:28;;;;;;;;;;;;;;;-140.72;0.00;52796.72;5017142;28;20380;-72
2023/03/16 10:37:55;;;;;;;;;;;;;;;-140.72;0.00;52782.50;5029358;28;19917;-72
2023/03/16 10:40:21;;;;;;;;;;;;;;;-140.72;0.00;52764.25;5019625;28;19918;-70
2023/03/16 10:42:46;;;;;;;;;;;;;;;-140.72;0.00;52806.84;5021497;28;19921;-71
2023/03/16 10:45:32;;;;;;;;;;;;;;;-140.72;0.00;52778.44;5023090;28;19973;-71
2023/03/16 10:48:07;;;;;;;;;;;;;;;-140.72;0.00;52780.47;5003225;28;19981;-71
2023/03/16 10:50:33;;;;;;;;;;;;;;;-140.72;0.00;52821.06;5033200;28;19924;-71
2023/03/16 10:52:59;;;;;;;;;;;;;;;-140.72;0.00;52776.41;5011701;28;20287;-71
2023/03/16 10:55:31;;;;;;;;;;;;;;;-140.72;0.00;52752.06;5037846;28;20417;-71
2023/03/16 10:57:57;;;;;;;;;;;;;;;-140.72;0.00;52752.06;5005030;28;19925;-71
2023/03/16 11:00:27;;;;;;;;;;;;;;;-140.72;0.00;52766.25;5031549;28;19935;-71
2023/03/16 11:02:54;;;;;;;;;;;;;;;-140.72;0.00;52743.94;5024551;28;20319;-71
2023/03/16 11:05:32;;;;;;;;;;;;;;;-140.72;0.00;52774.38;5017169;28;19959;-71
2023/03/16 11:07:59;;;;;;;;;;;;;;;-140.72;0.00;52780.47;5032869;28;20383;-71
2023/03/16 11:10:33;;;;;;;;;;;;;;;-140.72;0.00;52788.59;5016669;28;19917;-71
2023/03/16 11:13:07;;;;;;;;;;;;;;;-140.72;0.00;52814.97;5034335;28;19944;-71
2023/03/16 11:15:39;;;;;;;;;;;;;;;-140.72;0.00;52756.13;5005070;28;19965;-71
2023/03/16 11:18:05;;;;;;;;;;;;;;;-140.72;0.00;52796.72;5026419;28;19921;-71
2023/03/16 11:20:32;;;;;;;;;;;;;;;-140.72;0.00;52748.00;5021682;28;19940;-71
2023/03/16 11:22:59;;;;;;;;;;;;;;;-140.72;0.00;52808.88;5019497;28;20314;-71
2023/03/16 11:25:36;;;;;;;;;;;;;;;-140.72;0.00;52748.00;5034401;28;19924;-71
2023/03/16 11:28:10;;;;;;;;;;;;;;;-140.72;0.00;52774.38;5023837;28;19950;-71
2023/03/16 11:30:35;;;;;;;;;;;;;;;-140.72;0.00;52768.28;5019654;28;19949;-71
2023/03/16 11:33:01;;;;;;;;;;;;;;;-140.72;0.00;52743.94;5033257;28;19917;-71
2023/03/16 11:35:35;;;;;;;;;;;;;;;-140.72;0.00;52707.41;5033647;28;19925;-71
2023/03/16 11:38:14;;;;;;;;;;;;;;;-140.72;0.00;52743.94;5026457;28;19917;-72
2023/03/16 11:40:42;;;;;;;;;;;;;;;-140.72;0.00;52707.41;5024979;28;19917;-72
2023/03/16 11:43:23;;;;;;;;;;;;;;;-140.72;0.00;52705.38;5037174;28;19921;-75
2023/03/16 11:46:01;;;;;;;;;;;;;;;-140.72;0.00;52697.28;5026626;28;19917;-71
2023/03/16 11:48:38;;;;;;;;;;;;;;;-140.72;0.00;52697.28;5020548;28;19975;-71
2023/03/16 11:51:21;;;;;;;;;;;;;;;-140.72;0.00;52685.09;5028004;28;19917;-71
2023/03/16 11:54:06;;;;;;;;;;;;;;;-140.72;0.00;52583.63;5028010;28;19925;-70
2023/03/16 11:56:48;;;;;;;;;;;;;;;-140.72;0.00;52589.72;5016562;28;19924;-70
2023/03/16 11:59:20;;;;;;;;;;;;;;;-140.72;0.00;52711.47;5014849;28;20456;-71
2023/03/16 12:01:55;;;;;;;;;;;;;;;-140.72;0.00;52638.41;5011130;28;19918;-71
2023/03/16 12:04:37;;;;;;;;;;;;;;;-140.72;0.00;52685.09;4994734;28;20008;-71
2023/03/16 12:07:02;;;;;;;;;;;;;;;-140.72;0.00;52691.19;5012659;28;20284;-71
2023/03/16 12:09:39;;;;;;;;;;;;;;;-140.72;0.00;52695.25;5016621;28;19918;-71
2023/03/16 12:12:11;;;;;;;;;;;;;;;-140.72;0.00;52697.28;5014804;28;20000;-71
2023/03/16 12:14:42;;;;;;;;;;;;;;;-140.72;0.00;52691.19;4999760;28;19928;-70
2023/03/16 12:17:19;;;;;;;;;;;;;;;-140.72;0.00;52652.63;5007318;28;19922;-70
2023/03/16 12:19:49;;;;;;;;;;;;;;;-140.72;0.00;52683.06;5005243;28;19960;-70
2023/03/16 12:22:15;;;;;;;;;;;;;;;-140.72;0.00;52670.88;5015742;28;19917;-70
2023/03/16 12:24:42;;;;;;;;;;;;;;;-140.72;0.00;52634.38;5002565;28;19918;-70
2023/03/16 12:27:14;;;;;;;;;;;;;;;-140.72;0.00;52597.84;4999370;28;20414;-70
2023/03/16 12:29:43;;;;;;;;;;;;;;;-140.72;0.00;52624.22;5012110;28;19918;-70
2023/03/16 12:32:08;;;;;;;;;;;;;;;-140.72;0.00;52587.69;5009258;28;19973;-70
2023/03/16 12:34:39;;;;;;;;;;;;;;;-140.72;0.00;52603.94;4993660;28;20316;-70
2023/03/16 12:37:23;;;;;;;;;;;;;;;-140.72;0.00;52597.84;5010238;28;19917;-71
2023/03/16 12:40:15;;;;;;;;;;;;;;;-140.72;0.00;52628.28;5017856;28;19918;-71